Weather History for Clinton, OK

Change the Weather History Date:

Sunday, January 27, 2013

  Actual Average (KCSM) Record (KCSM)
Temperature  
Mean Temperature 58 °F -  
Max Temperature 71 °F 48 °F 73 °F (2013)
Min Temperature 44 °F 28 °F 10 °F (2009)
Degree Days  
Heating Degree Days 8    
Growing Degree Days 8 (Base 50)    
Moisture  
Dew Point 48 °F    
Average Humidity 74    
Maximum Humidity 94    
Minimum Humidity 41    
Precipitation  
Precipitation 0.00 in - - ()
Sea Level Pressure  
Sea Level Pressure 29.86 in    
Wind  
Wind Speed 15 mph (South)    
Max Wind Speed 25 mph    
Max Gust Speed 30 mph    
Visibility 6 miles    
Events Fog , Rain    
Averages and records for this station are not official NWS values.
T = Trace of Precipitation, MM = Missing Value Source: NWS Daily Summary

Daily Weather History Graph

Daily Weather History Graph

Search for Another Location

Airport:

Trip Planner

Search our weather history database for the weather conditions in past years. The results will help you decide how hot, cold, wet, or windy it might be!

Date:

Astronomy

Jan. 27, 2013 Rise Set
Actual Time 7:38 AM CST 5:58 PM CST
Civil Twilight 7:11 AM CST 6:25 PM CST
Nautical Twilight 6:41 AM CST 6:56 PM CST
Astronomical Twilight 6:10 AM CST 7:26 PM CST
Moon 6:50 PM CST (1/27) 7:35 AM CST (1/27)
Length of Visible Light 11h 13m
Length of Day
10h 19m
Full, 100% of the Moon is Illuminated
Jan 27
Full
Feb 3
Last Quarter
Feb 10
New
Feb 17
First Quarter
Feb 25
Full

Hourly Weather History & Observations

Time (CST) Temp. Windchill Dew Point Humidity Pressure Visibility Wind Dir Wind Speed Gust Speed Precip Events Conditions
12:15 AM 44.6 °F 38.8 °F 41.0 °F 87% 29.98 in 4.0 mi SSE 11.5 mph 17.3 mph N/A   Overcast
12:35 AM 44.6 °F 39.2 °F 41.0 °F 87% 29.99 in 4.0 mi South 10.4 mph - N/A   Overcast
12:55 AM 44.6 °F 40.7 °F 41.0 °F 87% 30.00 in 4.0 mi South 6.9 mph - N/A   Overcast
1:15 AM 44.6 °F 43.1 °F 41.0 °F 87% 30.00 in 4.0 mi South 3.5 mph - N/A   Overcast
1:35 AM 44.6 °F 41.4 °F 41.0 °F 87% 29.99 in 4.0 mi South 5.8 mph - N/A   Overcast
2:15 AM 44.6 °F 38.4 °F 42.8 °F 93% 29.97 in 3.0 mi SSE 12.7 mph - N/A   Overcast
2:35 AM 44.6 °F 38.1 °F 42.8 °F 93% 29.96 in 3.0 mi SSE 13.8 mph - N/A   Overcast
2:55 AM 46.4 °F 39.2 °F 44.6 °F 93% 29.94 in 2.5 mi SSE 18.4 mph - N/A   Overcast
3:15 AM 46.4 °F 39.2 °F 44.6 °F 93% 29.94 in 1.8 mi South 18.4 mph - N/A   Overcast
3:35 AM 46.4 °F 38.3 °F 44.6 °F 93% 29.94 in 1.2 mi South 23.0 mph 26.5 mph N/A   Overcast
3:55 AM 46.4 °F 39.8 °F 44.6 °F 93% 29.94 in 1.2 mi SSE 16.1 mph - N/A   Overcast
4:15 AM 46.4 °F 39.8 °F 44.6 °F 93% 29.93 in 1.0 mi South 16.1 mph - N/A   Overcast
4:35 AM 46.4 °F 39.5 °F 44.6 °F 93% 29.92 in 1.5 mi SSE 17.3 mph - N/A   Overcast
4:55 AM 46.4 °F 39.2 °F 44.6 °F 93% 29.90 in 0.8 mi SSE 18.4 mph - N/A   Overcast
5:15 AM 46.4 °F 39.5 °F 44.6 °F 93% 29.91 in 0.5 mi SSE 17.3 mph - N/A Rain Light Rain
5:35 AM 48.2 °F - 46.4 °F 93% 29.90 in 0.5 mi SSE 15.0 mph - N/A Rain Light Rain
5:55 AM 50.0 °F - 46.4 °F 87% 29.90 in 0.5 mi SSE 18.4 mph 21.9 mph N/A Fog Fog
6:15 AM 48.2 °F - 46.4 °F 93% 29.90 in 0.5 mi SSE 19.6 mph - N/A Fog Fog
6:35 AM 48.2 °F - 46.4 °F 93% 29.90 in 0.5 mi SSE 18.4 mph - N/A Fog Fog
7:15 AM 50.0 °F - 46.4 °F 87% 29.90 in 1.0 mi SSE 15.0 mph 23.0 mph N/A   Overcast
7:35 AM 50.0 °F - 46.4 °F 87% 29.90 in 1.8 mi SSE 12.7 mph 20.7 mph N/A   Overcast
7:55 AM 51.8 °F - 50.0 °F 94% 29.90 in 3.0 mi South 17.3 mph 25.3 mph N/A   Overcast
8:15 AM 51.8 °F - 50.0 °F 94% 29.90 in 3.0 mi South 19.6 mph 24.2 mph N/A   Overcast
8:35 AM 51.8 °F - 50.0 °F 94% 29.91 in 1.8 mi South 18.4 mph - N/A   Overcast
8:55 AM 51.8 °F - 50.0 °F 94% 29.91 in 1.5 mi South 18.4 mph 23.0 mph N/A   Overcast
9:15 AM 51.8 °F - 50.0 °F 94% 29.91 in 1.8 mi South 13.8 mph - N/A   Overcast
9:35 AM 51.8 °F - 50.0 °F 94% 29.91 in 2.0 mi South 16.1 mph - N/A   Overcast
9:55 AM 51.8 °F - 50.0 °F 94% 29.90 in 2.5 mi South 18.4 mph 26.5 mph N/A   Overcast
10:15 AM 53.6 °F - 51.8 °F 94% 29.91 in 4.0 mi South 18.4 mph 25.3 mph N/A   Overcast
10:35 AM 53.6 °F - 51.8 °F 94% 29.91 in 4.0 mi South 25.3 mph - N/A   Overcast
10:55 AM 55.4 °F - 51.8 °F 88% 29.91 in 4.0 mi South 21.9 mph 26.5 mph N/A   Overcast
11:15 AM 57.2 °F - 51.8 °F 82% 29.90 in 5.0 mi South 19.6 mph 29.9 mph N/A   Haze
11:35 AM 60.8 °F - 51.8 °F 72% 29.90 in 7.0 mi South 23.0 mph 27.6 mph N/A   Mostly Cloudy
11:55 AM 62.6 °F - 51.8 °F 68% 29.88 in 10.0 mi SSW 23.0 mph - N/A   Scattered Clouds
12:15 PM 62.6 °F - 51.8 °F 68% 29.87 in 10.0 mi South 23.0 mph 27.6 mph N/A   Clear
12:35 PM 64.4 °F - 51.8 °F 64% 29.85 in 10.0 mi South 24.2 mph 29.9 mph N/A   Clear
12:55 PM 64.4 °F - 50.0 °F 59% 29.84 in 10.0 mi South 21.9 mph 27.6 mph N/A   Clear
1:15 PM 64.4 °F - 51.8 °F 64% 29.83 in 10.0 mi South 21.9 mph - N/A   Clear
1:35 PM 68.0 °F - 50.0 °F 52% 29.82 in 10.0 mi SSW 20.7 mph 25.3 mph N/A   Clear
2:15 PM 68.0 °F - 50.0 °F 52% 29.80 in 10.0 mi South 19.6 mph 23.0 mph N/A   Clear
2:35 PM 68.0 °F - 50.0 °F 52% 29.79 in 10.0 mi South 24.2 mph - N/A   Clear
2:55 PM 69.8 °F - 50.0 °F 49% 29.79 in 10.0 mi South 20.7 mph 25.3 mph N/A   Clear
3:15 PM 71.6 °F - 50.0 °F 46% 29.79 in 10.0 mi South 19.6 mph - N/A   Clear
3:35 PM 71.6 °F - 50.0 °F 46% 29.78 in 10.0 mi South 21.9 mph 26.5 mph N/A   Clear
3:55 PM 71.6 °F - 48.2 °F 43% 29.77 in 10.0 mi South 24.2 mph 28.8 mph N/A   Clear
4:15 PM 71.6 °F - 48.2 °F 43% 29.77 in 10.0 mi South 23.0 mph 29.9 mph N/A   Clear
4:35 PM 71.6 °F - 48.2 °F 43% 29.77 in 10.0 mi South 17.3 mph - N/A   Clear
4:55 PM 71.6 °F - 46.4 °F 41% 29.76 in 10.0 mi South 19.6 mph 24.2 mph N/A   Clear
5:15 PM 69.8 °F - 46.4 °F 43% 29.76 in 10.0 mi South 16.1 mph 19.6 mph N/A   Clear
5:35 PM 69.8 °F - 48.2 °F 46% 29.77 in 10.0 mi South 15.0 mph - N/A   Clear
5:55 PM 68.0 °F - 48.2 °F 49% 29.77 in 10.0 mi South 15.0 mph - N/A   Clear
6:15 PM 66.2 °F - 48.2 °F 52% 29.78 in 10.0 mi South 13.8 mph - N/A   Clear
6:35 PM 64.4 °F - 48.2 °F 56% 29.78 in 10.0 mi South 12.7 mph - N/A   Clear
6:55 PM 64.4 °F - 50.0 °F 59% 29.79 in 10.0 mi South 17.3 mph - N/A   Clear
7:15 PM 64.4 °F - 50.0 °F 59% 29.79 in 10.0 mi South 15.0 mph - N/A   Clear
7:35 PM 64.4 °F - 50.0 °F 59% 29.80 in 10.0 mi South 12.7 mph - N/A   Clear
7:55 PM 62.6 °F - 50.0 °F 63% 29.80 in 10.0 mi SSE 13.8 mph - N/A   Clear
8:15 PM 60.8 °F - 50.0 °F 68% 29.80 in 10.0 mi SSE 13.8 mph - N/A   Clear
8:35 PM 60.8 °F - 50.0 °F 68% 29.81 in 10.0 mi South 11.5 mph - N/A   Clear
8:55 PM 60.8 °F - 50.0 °F 68% 29.81 in 10.0 mi South 12.7 mph - N/A   Clear
9:15 PM 60.8 °F - 50.0 °F 68% 29.81 in 10.0 mi South 13.8 mph - N/A   Clear
9:35 PM 60.8 °F - 50.0 °F 68% 29.81 in 10.0 mi South 13.8 mph - N/A   Clear
10:15 PM 60.8 °F - 50.0 °F 68% 29.82 in 10.0 mi South 15.0 mph - N/A   Clear
10:35 PM 59.0 °F - 50.0 °F 72% 29.82 in 10.0 mi South 12.7 mph - N/A   Clear
10:55 PM 59.0 °F - 48.2 °F 67% 29.83 in 10.0 mi South 13.8 mph - N/A   Clear
11:15 PM 57.2 °F - 48.2 °F 72% 29.83 in 10.0 mi South 11.5 mph - N/A   Clear
11:35 PM 55.4 °F - 48.2 °F 77% 29.83 in 10.0 mi SSE 10.4 mph - N/A   Clear
11:55 PM 55.4 °F - 46.4 °F 72% 29.83 in 10.0 mi SSE 11.5 mph - N/A   Clear